Pagrindinis puslapis
METAR-TAF:

METAR-TAF

Oro uostai :

Ankara-Güvercinlik, Turkija

platuma: 39-56N, ilguma: 032-45E, Aukštis: 819 m

METAR: trūkstamas

Laikas: 20:54 (17:54 UTC)

Prognozė

Ataskaita buvo paskelbta 1 valandą ir 14 minutes, ne 16:40 UTC
Prognozė galioja nuo 15 metu 18 UTC su 16 metu 03 UTC
Vėjas 12 kt iš Rytų/Šiaurės Rytų
Matomumas 10 km arba daugiau
nėra debesų žemiau 1500 m ir nėra kamuolinių lietaus debesų
Tapsmas
nuo 15 metu 18 UTC su 15 metu 20 UTC
Vėjas 2 kt nuo kintamojo kryptimis

TAF: LTAB 151640Z 1518/1603 07012KT CAVOK BECMG 1518/1520 VRB02KT

Orai ataskaitas ir orų prognozės (METAR, TAF).

turimą stotys yra geltonos ir raudonos taškus žemėlapyje.

Perkelti pele per norėdami pamatyti stoties vardą.

Tada spustelėkite, norėdami matyti oro stebėjimo ir prognozės.

Norėdami pakeisti žemėlapį: spustelėkite ant žalios mygtukų su juodo kryžiaus žemyn,; žalią mygtuką su brūkšneliu, jei norite nutolinti; arba žalių rodyklių gretimoms žemėlapius.


METAR-TAF: